createdAt,value
2022-08-03T00:00:44.604Z,73.60
2022-08-03T00:03:14.186Z,73.64
2022-08-03T00:06:04.763Z,73.69
2022-08-03T00:08:33.060Z,73.70
2022-08-03T00:11:09.539Z,73.61
2022-08-03T00:13:40.540Z,73.57
2022-08-03T00:16:10.708Z,73.39
2022-08-03T00:18:40.592Z,73.62
2022-08-03T00:21:10.153Z,73.43
2022-08-03T00:23:51.682Z,73.76
2022-08-03T00:26:22.633Z,73.83
2022-08-03T00:28:53.410Z,73.92
2022-08-03T00:31:27.765Z,73.73
2022-08-03T00:34:12.459Z,73.87
2022-08-03T00:36:42.314Z,73.58
2022-08-03T00:39:11.704Z,73.65
2022-08-03T00:41:40.969Z,73.63
2022-08-03T00:44:11.886Z,73.72
2022-08-03T00:46:41.200Z,74.16
2022-08-03T00:49:10.573Z,74.14
2022-08-03T00:51:40.138Z,74.23
2022-08-03T00:54:09.420Z,74.36
2022-08-03T00:56:39.697Z,74.55
2022-08-03T00:59:32.409Z,74.33
2022-08-03T01:02:01.704Z,74.43
2022-08-03T01:04:31.248Z,74.63
2022-08-03T01:07:10.977Z,74.54
2022-08-03T01:09:46.575Z,74.29
2022-08-03T01:12:23.587Z,74.29
2022-08-03T01:15:01.490Z,74.38
2022-08-03T01:17:37.140Z,74.52
2022-08-03T01:20:10.636Z,74.52
2022-08-03T01:22:56.685Z,74.60
2022-08-03T01:25:36.435Z,74.65
2022-08-03T01:28:24.374Z,74.79
2022-08-03T01:30:59.840Z,74.92
2022-08-03T01:33:35.154Z,74.79
2022-08-03T01:36:06.902Z,74.74
2022-08-03T01:38:39.582Z,74.71
2022-08-03T01:41:14.955Z,74.80
2022-08-03T01:43:59.078Z,74.68
2022-08-03T01:46:47.750Z,74.66
2022-08-03T01:49:19.277Z,74.62
2022-08-03T01:52:00.830Z,74.74
2022-08-03T01:54:36.836Z,74.73
2022-08-03T01:57:07.831Z,74.64
2022-08-03T01:59:38.668Z,74.70
2022-08-03T02:02:28.055Z,74.93
2022-08-03T02:05:10.600Z,75.16
2022-08-03T02:07:43.210Z,74.79
2022-08-03T02:10:16.131Z,75.03
2022-08-03T02:13:06.394Z,75.18
2022-08-03T02:15:37.224Z,75.15
2022-08-03T02:18:10.494Z,75.35
2022-08-03T02:20:40.995Z,74.92
2022-08-03T02:23:11.029Z,75.11
2022-08-03T02:25:47.838Z,75.13
2022-08-03T02:28:22.200Z,74.90
2022-08-03T02:30:55.969Z,75.02
2022-08-03T02:33:31.651Z,74.82
2022-08-03T02:36:03.504Z,75.20
2022-08-03T02:38:37.208Z,75.10
2022-08-03T02:41:13.925Z,75.19
2022-08-03T02:44:06.345Z,75.00
2022-08-03T02:46:38.492Z,74.83
2022-08-03T02:49:41.205Z,75.09
2022-08-03T02:52:02.325Z,75.20
2022-08-03T02:54:33.902Z,75.22
2022-08-03T02:57:04.389Z,75.16
2022-08-03T02:59:35.271Z,74.95
2022-08-03T03:02:05.562Z,74.77
2022-08-03T03:04:37.932Z,75.18
2022-08-03T03:07:15.591Z,75.00
2022-08-03T03:09:46.176Z,75.18
2022-08-03T03:12:17.095Z,74.89
2022-08-03T03:14:46.782Z,75.03
2022-08-03T03:17:18.646Z,75.09
2022-08-03T03:19:52.830Z,75.31
2022-08-03T03:22:23.165Z,75.29
2022-08-03T03:24:54.714Z,75.51
2022-08-03T03:27:24.347Z,75.15
2022-08-03T03:29:54.309Z,75.43
2022-08-03T03:32:23.669Z,75.19
2022-08-03T03:34:55.349Z,75.31
2022-08-03T03:37:24.879Z,75.24
2022-08-03T03:39:55.544Z,75.33
2022-08-03T03:42:26.126Z,75.53
2022-08-03T03:44:55.806Z,75.44
2022-08-03T03:47:32.937Z,75.49
2022-08-03T03:50:05.013Z,75.48
2022-08-03T03:52:34.962Z,75.27
2022-08-03T03:55:04.359Z,75.42
2022-08-03T03:57:35.213Z,75.31
2022-08-03T04:00:06.157Z,75.30
2022-08-03T04:02:35.866Z,75.45
2022-08-03T04:05:25.069Z,75.47
2022-08-03T04:08:17.454Z,75.52
2022-08-03T04:11:00.411Z,75.44
2022-08-03T04:13:39.808Z,75.36
2022-08-03T04:16:11.935Z,75.38
2022-08-03T04:18:43.443Z,75.24
2022-08-03T04:21:16.437Z,75.36
2022-08-03T04:23:50.041Z,75.46
2022-08-03T04:26:22.597Z,75.27
2022-08-03T04:28:53.380Z,75.47
2022-08-03T04:31:24.238Z,75.46
2022-08-03T04:33:54.690Z,75.38
2022-08-03T04:36:28.128Z,75.64
2022-08-03T04:39:05.017Z,75.51
2022-08-03T04:42:07.284Z,75.51
2022-08-03T04:44:28.830Z,75.56
2022-08-03T04:46:59.185Z,75.24
2022-08-03T04:49:30.440Z,75.33
2022-08-03T04:52:01.442Z,74.93
2022-08-03T04:54:31.094Z,75.02
2022-08-03T04:57:00.339Z,75.13
2022-08-03T04:59:31.719Z,75.33
2022-08-03T05:02:01.363Z,75.17
2022-08-03T05:04:30.897Z,75.34
2022-08-03T05:07:12.401Z,75.11
2022-08-03T05:09:49.777Z,75.30
2022-08-03T05:12:21.841Z,75.23
2022-08-03T05:14:51.375Z,75.04
2022-08-03T05:17:20.699Z,75.16
2022-08-03T05:19:49.949Z,75.09
2022-08-03T05:22:21.105Z,75.32
2022-08-03T05:24:50.667Z,75.03
2022-08-03T05:27:20.310Z,75.04
2022-08-03T05:29:51.289Z,75.17
2022-08-03T05:32:20.658Z,74.95
2022-08-03T05:34:50.252Z,75.06
2022-08-03T05:37:21.009Z,75.15
2022-08-03T05:39:50.240Z,74.91
2022-08-03T05:42:19.786Z,74.84
2022-08-03T05:44:49.082Z,74.63
2022-08-03T05:47:18.501Z,74.56
2022-08-03T05:49:47.986Z,74.29
2022-08-03T05:52:18.054Z,74.45
2022-08-03T05:54:56.077Z,74.44
2022-08-03T05:57:34.010Z,74.38
2022-08-03T06:00:05.275Z,74.22
2022-08-03T06:02:41.216Z,74.05
2022-08-03T06:05:11.451Z,74.21
2022-08-03T06:07:40.721Z,74.16
2022-08-03T06:10:36.157Z,74.13
2022-08-03T06:13:01.462Z,74.00
2022-08-03T06:15:33.344Z,73.86
2022-08-03T06:18:02.634Z,73.94
2022-08-03T06:20:32.372Z,74.06
2022-08-03T06:23:02.829Z,73.79
2022-08-03T06:25:33.808Z,74.02
2022-08-03T06:28:05.119Z,74.00
2022-08-03T06:30:34.785Z,74.00
2022-08-03T06:33:04.483Z,73.79
2022-08-03T06:35:37.817Z,73.69
2022-08-03T06:38:10.807Z,73.88
2022-08-03T06:40:42.059Z,73.90
2022-08-03T07:03:52.597Z,72.18
2022-08-03T07:06:22.879Z,72.23
2022-08-03T07:08:55.445Z,72.06
2022-08-03T07:11:28.614Z,71.85
2022-08-03T07:13:57.919Z,71.53
2022-08-03T07:16:27.422Z,71.31
2022-08-03T07:18:58.121Z,71.16
2022-08-03T07:21:27.360Z,70.95
2022-08-03T07:23:56.877Z,70.68
2022-08-03T07:26:26.214Z,70.36
2022-08-03T07:28:55.582Z,70.18
2022-08-03T07:31:25.078Z,69.98
2022-08-03T07:33:54.424Z,69.70
2022-08-03T07:36:26.931Z,69.67
2022-08-03T07:38:58.170Z,69.53
2022-08-03T07:41:27.581Z,69.46
2022-08-03T07:43:56.974Z,69.17
2022-08-03T07:46:26.795Z,69.01
2022-08-03T07:48:56.170Z,68.49
2022-08-03T07:51:26.976Z,68.39
2022-08-03T07:53:57.753Z,68.41
2022-08-03T07:56:27.130Z,68.13
2022-08-03T07:58:56.824Z,67.78
2022-08-03T08:01:26.644Z,67.70
2022-08-03T08:03:56.145Z,67.64
2022-08-03T08:06:26.793Z,67.21
2022-08-03T08:08:59.586Z,67.16
2022-08-03T08:11:30.934Z,66.43
2022-08-03T08:14:02.786Z,65.74
2022-08-03T08:16:32.419Z,64.75
2022-08-03T08:19:02.647Z,64.36
2022-08-03T08:21:53.505Z,64.53
2022-08-03T08:24:22.714Z,64.57
2022-08-03T08:26:52.791Z,63.72
2022-08-03T08:29:23.349Z,63.52
2022-08-03T08:31:52.813Z,63.26
2022-08-03T08:34:22.153Z,63.16
2022-08-03T08:36:52.836Z,62.51
2022-08-03T08:39:22.340Z,62.86
2022-08-03T08:41:53.475Z,62.75
2022-08-03T08:44:22.961Z,62.47
2022-08-03T08:46:54.900Z,62.22
2022-08-03T08:49:28.993Z,62.43
2022-08-03T08:52:01.703Z,61.98
2022-08-03T08:54:33.307Z,62.16
2022-08-03T08:57:16.457Z,60.21
2022-08-03T08:59:57.328Z,59.39
2022-08-03T09:02:27.350Z,59.25
2022-08-03T09:04:57.451Z,57.87
2022-08-03T09:07:29.227Z,55.71
2022-08-03T09:10:10.010Z,54.52
2022-08-03T09:12:43.868Z,52.35
2022-08-03T09:15:21.606Z,51.30
2022-08-03T09:17:52.018Z,50.84
2022-08-03T09:20:22.873Z,48.93
2022-08-03T09:22:59.042Z,48.79
2022-08-03T09:25:35.005Z,48.62
2022-08-03T09:28:10.335Z,48.89
2022-08-03T09:30:41.670Z,47.93
2022-08-03T09:33:13.123Z,48.07
2022-08-03T09:35:59.029Z,47.37
2022-08-03T09:38:30.059Z,47.38
2022-08-03T09:41:00.768Z,46.64
2022-08-03T09:43:46.822Z,46.39
2022-08-03T09:46:16.436Z,46.26
2022-08-03T09:48:46.136Z,46.17
2022-08-03T09:51:33.323Z,45.71
2022-08-03T09:54:15.098Z,45.45
2022-08-03T09:56:48.628Z,44.97
2022-08-03T09:59:26.548Z,45.10
2022-08-03T10:01:57.501Z,44.24
2022-08-03T10:04:27.671Z,44.42
2022-08-03T10:07:08.413Z,44.97
2022-08-03T10:09:39.909Z,44.37
2022-08-03T10:12:13.573Z,42.96
2022-08-03T10:14:45.707Z,43.34
2022-08-03T10:17:15.490Z,43.22
2022-08-03T10:19:46.590Z,42.10
2022-08-03T10:22:17.395Z,41.92
2022-08-03T10:24:54.847Z,42.23
2022-08-03T10:27:25.511Z,42.25
2022-08-03T10:29:57.059Z,42.50
2022-08-03T10:32:31.712Z,42.42
2022-08-03T10:35:20.285Z,42.57
2022-08-03T10:37:57.447Z,42.08
2022-08-03T10:40:48.228Z,41.30
2022-08-03T10:43:23.548Z,41.14
2022-08-03T10:45:53.433Z,40.65
2022-08-03T10:48:23.609Z,41.21
2022-08-03T10:50:53.335Z,40.94
2022-08-03T10:53:37.574Z,40.02
2022-08-03T10:56:49.906Z,39.39
2022-08-03T10:59:27.908Z,39.54
2022-08-03T11:02:00.724Z,39.62
2022-08-03T11:04:31.030Z,40.01
2022-08-03T11:07:23.277Z,39.08
2022-08-03T11:09:54.734Z,38.91
2022-08-03T11:12:30.176Z,38.64
2022-08-03T11:15:03.467Z,38.88
2022-08-03T11:17:33.784Z,39.49
2022-08-03T11:20:16.598Z,39.94
2022-08-03T11:22:54.491Z,39.68
2022-08-03T11:25:53.915Z,38.37
2022-08-03T11:28:30.629Z,38.08
2022-08-03T11:31:49.934Z,38.10
2022-08-03T11:34:20.099Z,38.12
2022-08-03T11:37:23.305Z,38.08
2022-08-03T11:39:57.258Z,37.98
2022-08-03T11:42:49.157Z,38.31
2022-08-03T11:45:19.961Z,37.00
2022-08-03T11:47:54.081Z,37.23
2022-08-03T11:50:24.448Z,37.12
2022-08-03T11:52:54.003Z,38.02
2022-08-03T11:55:25.035Z,37.81
2022-08-03T11:59:16.631Z,37.46
2022-08-03T12:00:52.567Z,37.96
2022-08-03T12:03:22.548Z,37.29
2022-08-03T12:05:53.175Z,37.01
2022-08-03T12:08:37.449Z,37.28
2022-08-03T12:11:08.714Z,37.25
2022-08-03T12:14:44.068Z,37.64
2022-08-03T12:16:33.576Z,37.85
2022-08-03T12:19:05.005Z,37.31
2022-08-03T12:21:35.428Z,36.87
2022-08-03T12:24:06.823Z,36.03
2022-08-03T12:26:58.535Z,35.58
2022-08-03T12:29:29.609Z,35.85
2022-08-03T12:32:00.419Z,35.58
2022-08-03T12:34:48.211Z,35.06
2022-08-03T12:37:22.440Z,34.63
2022-08-03T12:40:01.346Z,34.98
2022-08-03T12:42:35.077Z,35.11
2022-08-03T12:45:19.926Z,35.92
2022-08-03T12:47:55.185Z,36.52
2022-08-03T12:50:27.525Z,36.26
2022-08-03T12:52:57.764Z,35.99
2022-08-03T12:55:57.210Z,35.23
2022-08-03T12:58:34.560Z,35.26
2022-08-03T13:01:10.102Z,35.31
2022-08-03T13:03:49.784Z,35.28
2022-08-03T13:06:22.650Z,35.30
2022-08-03T13:09:02.705Z,35.19
2022-08-03T13:12:01.852Z,35.86
2022-08-03T13:14:21.514Z,35.24
2022-08-03T13:16:51.024Z,34.55
2022-08-03T13:19:21.724Z,34.71
2022-08-03T13:21:53.906Z,33.98
2022-08-03T13:24:34.657Z,33.99
2022-08-03T13:28:02.422Z,34.18
2022-08-03T13:29:54.842Z,33.90
2022-08-03T13:32:25.028Z,34.13
2022-08-03T13:34:55.717Z,34.16
2022-08-03T13:37:25.642Z,33.91
2022-08-03T13:39:59.604Z,33.58
2022-08-03T13:42:32.064Z,33.20
2022-08-03T13:45:02.427Z,33.48
2022-08-03T13:47:32.016Z,33.85
2022-08-03T13:50:03.364Z,33.71
2022-08-03T13:52:35.168Z,33.56
2022-08-03T13:55:05.691Z,33.83
2022-08-03T13:58:05.418Z,33.69
2022-08-03T14:00:28.394Z,33.23
2022-08-03T14:03:16.123Z,33.64
2022-08-03T14:05:47.713Z,32.66
2022-08-03T14:08:18.244Z,32.96
2022-08-03T14:10:47.887Z,33.35
2022-08-03T14:13:18.202Z,33.35
2022-08-03T14:15:50.129Z,33.42
2022-08-03T14:18:29.093Z,33.69
2022-08-03T14:21:07.193Z,33.37
2022-08-03T14:23:38.609Z,33.61
2022-08-03T14:26:09.391Z,34.00
2022-08-03T14:28:38.844Z,33.16
2022-08-03T14:32:09.127Z,32.72
2022-08-03T14:33:58.130Z,33.00
2022-08-03T14:36:42.307Z,32.40
2022-08-03T14:39:11.757Z,32.40
2022-08-03T14:41:41.484Z,32.14
2022-08-03T14:44:10.684Z,31.82
2022-08-03T14:46:40.047Z,32.35
2022-08-03T14:50:37.431Z,31.71
2022-08-03T14:52:00.643Z,31.79
2022-08-03T14:54:31.466Z,31.79
2022-08-03T14:57:00.981Z,31.58
2022-08-03T14:59:56.400Z,31.48
2022-08-03T15:02:23.775Z,31.49
2022-08-03T15:04:53.938Z,31.27
2022-08-03T15:07:24.812Z,31.01
2022-08-03T15:09:54.314Z,31.14
2022-08-03T15:12:23.581Z,31.11
2022-08-03T15:14:53.015Z,31.00
2022-08-03T15:17:22.334Z,30.24
2022-08-03T15:20:00.426Z,30.32
2022-08-03T15:22:39.978Z,30.19
2022-08-03T15:26:02.348Z,30.25
2022-08-03T15:28:03.616Z,29.76
2022-08-03T15:30:36.869Z,29.50
2022-08-03T15:33:06.660Z,29.65
2022-08-03T15:35:35.715Z,29.43
2022-08-03T15:38:09.458Z,29.73
2022-08-03T15:40:39.689Z,30.12
2022-08-03T15:43:08.715Z,30.35
2022-08-03T15:45:38.280Z,30.32
2022-08-03T15:48:07.841Z,30.18
2022-08-03T15:50:37.314Z,30.33
2022-08-03T15:53:07.708Z,30.37
2022-08-03T15:55:37.166Z,30.11
2022-08-03T15:59:04.294Z,30.22
2022-08-03T16:00:56.925Z,30.84
2022-08-03T16:03:28.373Z,30.01
2022-08-03T16:05:57.842Z,29.89
2022-08-03T16:08:28.544Z,30.40
2022-08-03T16:10:58.342Z,30.85
2022-08-03T16:14:04.797Z,31.21
2022-08-03T16:16:18.648Z,30.71
2022-08-03T16:18:48.184Z,30.51
2022-08-03T16:21:19.432Z,30.24
2022-08-03T16:23:52.288Z,30.23
2022-08-03T16:26:21.563Z,29.83
2022-08-03T16:28:50.832Z,30.29
2022-08-03T16:31:20.297Z,30.68
2022-08-03T16:33:49.365Z,30.60
2022-08-03T16:36:18.907Z,30.49
2022-08-03T16:38:49.689Z,30.51
2022-08-03T16:41:19.029Z,30.61
2022-08-03T16:43:48.345Z,30.58
2022-08-03T16:46:17.646Z,31.06
2022-08-03T16:48:46.949Z,31.38
2022-08-03T16:51:16.203Z,31.80
2022-08-03T16:54:05.345Z,32.00
2022-08-03T16:56:36.419Z,32.23
2022-08-03T16:59:06.574Z,32.35
2022-08-03T17:01:37.863Z,32.53
2022-08-03T17:04:07.487Z,32.23
2022-08-03T17:06:44.961Z,32.27
2022-08-03T17:09:18.183Z,32.78
2022-08-03T17:11:52.027Z,33.14
2022-08-03T17:14:23.866Z,33.41
2022-08-03T17:17:02.073Z,33.43
2022-08-03T17:19:36.671Z,33.69
2022-08-03T17:22:12.038Z,34.07
2022-08-03T17:24:45.433Z,34.46
2022-08-03T17:28:48.490Z,34.68
2022-08-03T17:30:14.904Z,35.18
2022-08-03T17:32:56.699Z,35.76
2022-08-03T17:35:36.514Z,36.26
2022-08-03T17:38:11.921Z,36.12
2022-08-03T17:40:50.150Z,36.43
2022-08-03T18:02:37.060Z,37.05
2022-08-03T18:05:16.857Z,37.65
2022-08-03T18:08:02.502Z,38.24
2022-08-03T18:10:49.519Z,39.05
2022-08-03T18:13:24.745Z,39.31
2022-08-03T18:16:00.356Z,39.70
2022-08-03T18:18:39.108Z,39.93
2022-08-03T18:21:16.866Z,40.51
2022-08-03T18:23:50.123Z,40.71
2022-08-03T18:26:21.532Z,41.35
2022-08-03T18:28:54.382Z,41.89
2022-08-03T18:32:00.436Z,42.98
2022-08-03T18:34:33.435Z,44.02
2022-08-03T18:37:07.642Z,44.42
2022-08-03T18:39:49.838Z,44.82
2022-08-03T18:42:25.910Z,44.86
2022-08-03T18:44:57.028Z,45.34
2022-08-03T18:47:52.059Z,45.61
2022-08-03T18:50:30.727Z,45.81
2022-08-03T18:53:15.558Z,46.14
2022-08-03T18:56:02.119Z,46.55
2022-08-03T18:58:39.593Z,46.61
2022-08-03T19:01:58.575Z,46.74
2022-08-03T19:04:13.459Z,46.83
2022-08-03T19:06:48.692Z,46.33
2022-08-03T19:09:29.031Z,46.43
2022-08-03T19:12:26.180Z,46.56
2022-08-03T19:14:56.278Z,46.71
2022-08-03T19:17:29.745Z,46.85
2022-08-03T19:20:01.592Z,47.29
2022-08-03T19:22:33.752Z,47.42
2022-08-03T19:25:04.216Z,47.80
2022-08-03T19:27:35.200Z,48.56
2022-08-03T19:30:21.789Z,48.90
2022-08-03T19:32:56.256Z,49.31
2022-08-03T19:35:51.918Z,49.15
2022-08-03T19:38:29.114Z,49.46
2022-08-03T19:41:02.281Z,49.82
2022-08-03T19:43:52.994Z,50.13
2022-08-03T19:46:30.973Z,50.74
2022-08-03T19:49:04.191Z,50.94
2022-08-03T19:52:02.512Z,51.59
2022-08-03T19:54:29.719Z,51.47
2022-08-03T19:57:04.793Z,52.24
2022-08-03T19:59:42.028Z,51.97
2022-08-03T20:02:26.459Z,51.89
2022-08-03T20:05:00.042Z,52.49
2022-08-03T20:07:32.531Z,52.42
2022-08-03T20:10:05.940Z,52.44
2022-08-03T20:12:39.432Z,52.66
2022-08-03T20:15:10.610Z,53.04
2022-08-03T20:17:55.965Z,52.52
2022-08-03T20:20:29.907Z,52.78
2022-08-03T20:23:06.864Z,52.83
2022-08-03T20:25:48.758Z,52.90
2022-08-03T20:28:30.029Z,53.20
2022-08-03T20:30:59.838Z,53.55
2022-08-03T20:33:45.851Z,53.73
2022-08-03T20:36:18.874Z,53.82
2022-08-03T20:38:50.944Z,53.59
2022-08-03T20:41:22.918Z,53.81
2022-08-03T20:43:52.689Z,53.70
2022-08-03T20:46:32.853Z,53.75
2022-08-03T20:49:09.160Z,53.82
2022-08-03T20:51:49.527Z,54.23
2022-08-03T20:54:31.259Z,54.15
2022-08-03T20:57:03.817Z,54.97
2022-08-03T20:59:50.078Z,55.17
2022-08-03T21:02:29.563Z,55.32
2022-08-03T21:05:03.604Z,55.53
2022-08-03T21:08:05.716Z,55.51
2022-08-03T21:10:33.747Z,55.58
2022-08-03T21:13:17.461Z,55.65
2022-08-03T21:16:02.359Z,55.32
2022-08-03T21:18:46.069Z,55.40
2022-08-03T21:21:17.709Z,55.30
2022-08-03T21:23:49.930Z,55.22
2022-08-03T21:26:21.738Z,55.29
2022-08-03T21:28:53.963Z,55.43
2022-08-03T21:31:26.583Z,55.66
2022-08-03T21:33:57.934Z,55.45
2022-08-03T21:36:29.435Z,55.35
2022-08-03T21:38:59.756Z,55.06
2022-08-03T21:41:32.313Z,54.83
2022-08-03T21:44:03.552Z,54.81
2022-08-03T21:46:43.737Z,54.77
2022-08-03T21:50:06.133Z,54.70
2022-08-03T21:52:05.153Z,54.84
2022-08-03T21:54:37.558Z,55.13
2022-08-03T21:57:14.667Z,55.25
2022-08-03T21:59:53.034Z,55.39
2022-08-03T22:02:26.981Z,55.47
2022-08-03T22:04:57.436Z,55.56
2022-08-03T22:07:28.263Z,55.92
2022-08-03T22:09:59.018Z,55.62
2022-08-03T22:12:31.190Z,55.75
2022-08-03T22:15:03.445Z,55.69
2022-08-03T22:17:55.708Z,55.86
2022-08-03T22:20:24.934Z,55.74
2022-08-03T22:22:57.269Z,55.78
2022-08-03T22:25:30.573Z,55.95
2022-08-03T22:28:04.301Z,55.95
2022-08-03T22:30:35.685Z,55.98
2022-08-03T22:33:11.043Z,56.09
2022-08-03T22:35:47.640Z,56.22
2022-08-03T22:38:19.524Z,56.21
2022-08-03T22:40:51.056Z,55.88
2022-08-03T22:43:24.509Z,55.99
2022-08-03T22:46:10.539Z,55.86
2022-08-03T22:48:42.618Z,55.66
2022-08-03T22:51:12.173Z,55.71
2022-08-03T22:53:42.570Z,55.76
2022-08-03T22:56:12.624Z,55.98
2022-08-03T22:58:41.922Z,56.13
2022-08-03T23:01:14.523Z,56.22
2022-08-03T23:03:59.712Z,56.22
2022-08-03T23:06:34.317Z,56.16
2022-08-03T23:09:06.860Z,56.41
2022-08-03T23:11:42.826Z,56.59
2022-08-03T23:14:16.732Z,56.58
2022-08-03T23:16:48.526Z,56.62
2022-08-03T23:19:25.513Z,56.69
2022-08-03T23:22:02.878Z,56.14
2022-08-03T23:24:37.012Z,56.37
2022-08-03T23:27:07.473Z,56.39
2022-08-03T23:29:38.296Z,56.61
2022-08-03T23:32:09.934Z,56.39
2022-08-03T23:34:58.780Z,56.39
2022-08-03T23:37:28.433Z,56.45
2022-08-03T23:39:58.658Z,56.38
2022-08-03T23:42:28.511Z,56.45
2022-08-03T23:44:59.474Z,56.42
2022-08-03T23:47:46.323Z,56.28
2022-08-03T23:50:18.578Z,56.53
